Milenium Dos — ECCX — position and weather

sailwx.info

Track history (hours):
 
Tides and Currents Weather Stations Pressure Air Temp Water Temp Dewpoint Dewpoint Depression Visibility Wind Speed Wind Dir Waves Ship Positions

Milenium Dos

Last reported at 2018-Feb-23 14:31 UTC. Time now 2018-Feb-23 14:32 UTC.
Position N 35°54' W 005°19'.

Length 97 m; draft 2.7 m.

Type: Passenger vessel. MMSI: 224239000.

Date/timePositionNaut miles runAvg speedWind from/ knotsBaromVisibWave heightAir tempDewpointWater temp
2018-Feb-23 14:31N 35°54' W 005°19'1610.3
2018-Feb-23 13:01N 36°08' W 005°26'816.1
2018-Feb-23 12:31N 36°01' W 005°21'814.9
2018-Feb-23 12:00N 35°54' W 005°19'0 0.3
2018-Feb-23 11:30N 35°54' W 005°19'16 7.3
2018-Feb-23 09:22N 36°09' W 005°26'717.6
2018-Feb-23 08:57N 36°02' W 005°22'919.7
2018-Feb-23 08:31N 35°54' W 005°19'0 0.0
2018-Feb-23 08:00N 35°54' W 005°19'713.1
2018-Feb-23 07:31N 36°00' W 005°20'918.9
2018-Feb-23 07:00N 36°09' W 005°26'1 0.7
2018-Feb-23 05:48N 36°08' W 005°26'0 0.0
2018-Feb-23 05:17N 36°08' W 005°26'0 0.0
2018-Feb-23 04:53N 36°08' W 005°26'0 0.0
2018-Feb-23 04:30N 36°08' W 005°26'0 0.0
2018-Feb-23 02:58N 36°08' W 005°26'0 0.0
2018-Feb-23 02:09N 36°08' W 005°26'0 0.0
2018-Feb-23 02:00N 36°08' W 005°26'0 0.0
2018-Feb-23 01:15N 36°08' W 005°26'0 0.0
2018-Feb-23 01:00N 36°08' W 005°26'0 0.0
2018-Feb-23 00:25N 36°08' W 005°26'8 3.2
2018-Feb-22 21:57N 36°01' W 005°21'817.6
2018-Feb-22 21:30N 35°54' W 005°19'0 0.6
2018-Feb-22 21:01N 35°54' W 005°19'1223.8
2018-Feb-22 20:30N 36°05' W 005°23'4 3.2
2018-Feb-22 19:14N 36°09' W 005°26'715.9
2018-Feb-22 18:45N 36°02' W 005°22'624.4
2018-Feb-22 18:31N 35°56' W 005°20'2 4.9
2018-Feb-22 18:00N 35°54' W 005°19'0 0.2
2018-Feb-22 17:30N 35°54' W 005°19'1020.1
2018-Feb-22 17:00N 36°03' W 005°23'6 4.4
2018-Feb-22 15:44N 36°08' W 005°26'412.1
2018-Feb-22 15:27N 36°06' W 005°23'1125.1
2018-Feb-22 15:01N 35°55' W 005°19'1 2.9
2018-Feb-22 14:31N 35°54' W 005°19'1019.3
2018-Feb-22 14:01N 36°03' W 005°23'6 5.7
2018-Feb-22 12:57N 36°08' W 005°26'816.3
2018-Feb-22 12:28N 36°01' W 005°21'816.9
2018-Feb-22 12:00N 35°54' W 005°19'0 0.4
2018-Feb-22 11:30N 35°54' W 005°19'8 3.0
2018-Feb-22 08:55N 36°01' W 005°21'819.4
2018-Feb-22 08:31N 35°54' W 005°19'0 0.0
2018-Feb-22 08:00N 35°54' W 005°19'713.5
2018-Feb-22 07:31N 36°00' W 005°21'918.3
2018-Feb-22 07:00N 36°08' W 005°26'1 1.4
2018-Feb-22 06:29N 36°08' W 005°26'0 0.0
2018-Feb-22 05:59N 36°08' W 005°26'0 0.0
2018-Feb-22 05:21N 36°08' W 005°26'0 0.0
2018-Feb-22 04:53N 36°08' W 005°26'0 0.0
2018-Feb-22 03:55N 36°08' W 005°26'0 0.0
2018-Feb-22 03:25N 36°08' W 005°26'0 0.0
2018-Feb-22 02:58N 36°08' W 005°26'0 0.0
2018-Feb-22 02:29N 36°08' W 005°26'0 0.0
2018-Feb-22 02:00N 36°08' W 005°26'0 0.0
2018-Feb-22 01:30N 36°08' W 005°26'0 0.0
2018-Feb-22 01:00N 36°08' W 005°26'0 0.0
2018-Feb-22 00:30N 36°08' W 005°26'0 0.0
2018-Feb-21 23:59N 36°08' W 005°26'0 0.0
2018-Feb-21 23:30N 36°08' W 005°26'0 0.0
2018-Feb-21 23:00N 36°08' W 005°26'1 2.9
2018-Feb-21 22:30N 36°09' W 005°25'1223.1
2018-Feb-21 22:01N 35°58' W 005°20'5 9.2
2018-Feb-21 21:30N 35°54' W 005°19'0 0.3
2018-Feb-21 21:00N 35°54' W 005°19'1122.2
2018-Feb-21 20:31N 36°05' W 005°22'5 8.7
2018-Feb-21 19:59N 36°08' W 005°26'0 0.0
2018-Feb-21 19:30N 36°08' W 005°26'2 4.2
2018-Feb-21 19:00N 36°09' W 005°24'1122.8
2018-Feb-21 18:30N 35°58' W 005°20'5 9.3
2018-Feb-21 18:00N 35°54' W 005°19'0 0.1
2018-Feb-21 17:30N 35°54' W 005°19'918.8
2018-Feb-21 17:00N 36°03' W 005°22'6 5.1
2018-Feb-21 15:48N 36°08' W 005°26'715.4
2018-Feb-21 15:22N 36°02' W 005°22'924.4
2018-Feb-21 15:00N 35°54' W 005°19'1 1.1
2018-Feb-21 14:31N 35°54' W 005°19'1221.5
2018-Feb-21 13:58N 36°05' W 005°23'4 4.3
2018-Feb-21 12:57N 36°09' W 005°26'818.4
2018-Feb-21 12:31N 36°01' W 005°23'815.1
2018-Feb-21 12:00N 35°54' W 005°19'0 0.4
2018-Feb-21 11:31N 35°54' W 005°19'1122.4
2018-Feb-21 11:00N 36°05' W 005°23'4 2.6
2018-Feb-21 09:22N 36°08' W 005°26'817.5
2018-Feb-21 08:54N 36°01' W 005°20'819.7
2018-Feb-21 08:30N 35°54' W 005°19'0 0.0
2018-Feb-21 08:00N 35°54' W 005°19'510.7
2018-Feb-21 07:31N 35°59' W 005°20'1122.0
2018-Feb-21 07:00N 36°09' W 005°26'1 0.6
2018-Feb-21 05:15N 36°08' W 005°26'0 0.0
2018-Feb-21 04:50N 36°08' W 005°26'0 0.0
2018-Feb-21 04:25N 36°08' W 005°26'0 0.0
2018-Feb-21 03:50N 36°08' W 005°26'0 0.0
2018-Feb-21 03:28N 36°08' W 005°26'0 0.0
2018-Feb-21 02:59N 36°08' W 005°26'0 0.0
2018-Feb-21 02:31N 36°08' W 005°26'0 0.0
2018-Feb-21 02:00N 36°08' W 005°26'0 0.0
2018-Feb-21 01:28N 36°08' W 005°26'0 0.0
2018-Feb-21 00:58N 36°08' W 005°26'0 0.0
2018-Feb-21 00:30N 36°08' W 005°26'0 0.0
2018-Feb-20 23:59N 36°08' W 005°26'0 0.0
2018-Feb-20 23:20N 36°08' W 005°26'0 0.0
2018-Feb-20 22:58N 36°08' W 005°26'0 0.7
2018-Feb-20 22:30N 36°08' W 005°26'815.3
2018-Feb-20 22:00N 36°01' W 005°21'815.8
2018-Feb-20 21:30N 35°54' W 005°19'0 0.1
2018-Feb-20 21:01N 35°54' W 005°19'1019.2
2018-Feb-20 20:31N 36°03' W 005°22'611.8
2018-Feb-20 20:00N 36°08' W 005°26'0 0.0
2018-Feb-20 19:30N 36°08' W 005°26'2 4.8
2018-Feb-20 19:00N 36°08' W 005°23'1223.6
2018-Feb-20 18:31N 35°57' W 005°19'3 6.1
2018-Feb-20 18:00N 35°54' W 005°19'0 0.5
2018-Feb-20 17:31N 35°54' W 005°19'1622.9
2018-Feb-20 16:48N 36°09' W 005°26'1 1.2
2018-Feb-20 15:57N 36°08' W 005°26'714.9
2018-Feb-20 15:30N 36°03' W 005°21'918.4
2018-Feb-20 15:00N 35°54' W 005°19'0 0.0
2018-Feb-20 14:31N 35°54' W 005°19'1621.0
2018-Feb-20 13:45N 36°09' W 005°26'0 0.7
2018-Feb-20 13:06N 36°08' W 005°26'715.2
2018-Feb-20 12:38N 36°02' W 005°21'325.9
2018-Feb-20 12:31N 35°59' W 005°20'510.7
2018-Feb-20 12:00N 35°54' W 005°19'3 5.3
2018-Feb-20 11:31N 35°56' W 005°19'6 2.4
2018-Feb-20 08:59N 36°02' W 005°22'817.8
2018-Feb-20 08:30N 35°54' W 005°19'0 0.1
2018-Feb-20 08:00N 35°54' W 005°19'816.7
2018-Feb-20 07:31N 36°02' W 005°21'714.6
2018-Feb-20 07:01N 36°08' W 005°26'0 0.3
2018-Feb-20 06:17N 36°08' W 005°26'0 0.0
2018-Feb-19 22:59N 36°08' W 005°26'2 3.0
2018-Feb-19 22:26N 36°09' W 005°25'1226.9
2018-Feb-19 22:00N 35°58' W 005°20'4 8.3
2018-Feb-19 21:30N 35°54' W 005°19'0 0.2
2018-Feb-19 21:00N 35°54' W 005°19'1020.5
2018-Feb-19 20:31N 36°04' W 005°22'6 4.4
2018-Feb-19 19:15N 36°08' W 005°26'4 8.7
2018-Feb-19 18:51N 36°06' W 005°23'926.6
2018-Feb-19 18:31N 35°57' W 005°19'3 6.7
2018-Feb-19 18:00N 35°54' W 005°19'0 0.8
2018-Feb-19 17:31N 35°54' W 005°19'1325.9
2018-Feb-19 17:00N 36°06' W 005°24'3 2.6
2018-Feb-19 15:58N 36°08' W 005°26'4 9.6
2018-Feb-19 15:31N 36°05' W 005°22'1122.7
2018-Feb-19 15:00N 35°54' W 005°19'0 0.5
2018-Feb-19 14:30N 35°54' W 005°19'1020.8
2018-Feb-19 14:01N 36°04' W 005°22'5 4.9
2018-Feb-19 12:57N 36°08' W 005°26'714.7
2018-Feb-19 12:30N 36°02' W 005°22'917.8
2018-Feb-19 12:00N 35°54' W 005°19'0 0.4
2018-Feb-19 11:30N 35°54' W 005°19'1122.6
2018-Feb-19 11:00N 36°05' W 005°22'4 2.6
2018-Feb-19 09:23N 36°08' W 005°26'513.6
2018-Feb-19 09:01N 36°04' W 005°23'1020.8
2018-Feb-19 08:30N 35°54' W 005°19'  
2018-Feb-15 22:46N 36°08' W 005°26'2 5.7
2018-Feb-15 22:29N 36°09' W 005°25'1225.8
2018-Feb-15 22:00N 35°57' W 005°20'3 6.8
2018-Feb-15 21:31N 35°54' W 005°19'0 0.0
2018-Feb-15 21:01N 35°54' W 005°19'1019.7
2018-Feb-15 20:30N 36°03' W 005°22'6 4.6
2018-Feb-15 19:19N 36°08' W 005°26'2 5.7
2018-Feb-15 19:00N 36°09' W 005°24'1225.0
2018-Feb-15 18:30N 35°57' W 005°20'3 6.2
2018-Feb-15 18:00N 35°54' W 005°19'0 0.5
2018-Feb-15 17:31N 35°54' W 005°19'1224.7
2018-Feb-15 17:00N 36°06' W 005°23'2 1.3
2018-Feb-15 15:31N 36°04' W 005°22'026.0
2018-Feb-15 15:30N 36°04' W 005°21'1021.0
2018-Feb-15 15:01N 35°54' W 005°19'0 0.2
2018-Feb-15 14:31N 35°54' W 005°19'1223.9
2018-Feb-15 14:00N 36°05' W 005°22'4 4.0
2018-Feb-15 12:58N 36°09' W 005°26'818.4
2018-Feb-15 12:30N 36°01' W 005°21'815.6
2018-Feb-15 12:01N 35°54' W 005°19'1 1.2
2018-Feb-15 11:30N 35°54' W 005°19'15 7.5
2018-Feb-15 09:27N 36°08' W 005°26'614.5
2018-Feb-15 09:00N 36°02' W 005°22'918.0
2018-Feb-15 08:30N 35°54' W 005°19'0 0.0
2018-Feb-15 08:00N 35°54' W 005°19'713.7
2018-Feb-15 07:31N 36°00' W 005°21'917.2
2018-Feb-15 07:00N 36°08' W 005°26'0 0.0
2018-Feb-14 22:32N 36°08' W 005°26'0 7.3
2018-Feb-14 22:31N 36°08' W 005°26'815.7
2018-Feb-14 22:01N 36°01' W 005°21'815.2
2018-Feb-14 21:30N 35°54' W 005°19'0 0.2
2018-Feb-14 21:00N 35°54' W 005°19'1121.4
2018-Feb-14 20:31N 36°04' W 005°22'5 4.1
2018-Feb-14 19:21N 36°08' W 005°26'3 8.2
2018-Feb-14 19:01N 36°06' W 005°24'1325.7
2018-Feb-14 18:31N 35°54' W 005°19'1 1.0
2018-Feb-14 18:01N 35°54' W 005°19'0 0.5
2018-Feb-14 17:31N 35°54' W 005°19'1325.2
2018-Feb-14 16:58N 36°07' W 005°24'2 2.0
2018-Feb-14 15:48N 36°08' W 005°26'3 9.6
2018-Feb-14 15:30N 36°06' W 005°23'1325.5
2018-Feb-14 15:01N 35°54' W 005°19'1 1.5
2018-Feb-14 14:30N 35°54' W 005°19'816.3
2018-Feb-14 14:00N 36°01' W 005°22'7 7.4
2018-Feb-14 13:03N 36°08' W 005°26'0 9.1
2018-Feb-14 13:00N 36°08' W 005°26'918.2
2018-Feb-14 12:30N 36°00' W 005°21'713.2
2018-Feb-14 12:01N 35°54' W 005°19'0 0.6
2018-Feb-14 11:31N 35°54' W 005°19'1122.7
2018-Feb-14 11:00N 36°05' W 005°23'4 2.9
2018-Feb-14 09:31N 36°08' W 005°26'0 3.9
2018-Feb-14 09:27N 36°08' W 005°26'614.3
2018-Feb-14 09:01N 36°02' W 005°22'918.0
2018-Feb-14 08:30N 35°54' W 005°19'0 0.0
2018-Feb-14 08:00N 35°54' W 005°19'816.6
2018-Feb-14 07:30N 36°02' W 005°21'714.8
2018-Feb-14 07:00N 36°08' W 005°26'0 0.1
2018-Feb-14 06:00N 36°08' W 005°26'0 0.0
2018-Feb-13 23:02N 36°08' W 005°26'0 0.0
2018-Feb-13 23:00N 36°08' W 005°26'1 1.2
2018-Feb-13 22:30N 36°08' W 005°26'918.6
2018-Feb-13 22:01N 36°00' W 005°20'713.2
2018-Feb-13 21:31N 35°54' W 005°19'0 0.2
2018-Feb-13 21:00N 35°54' W 005°19'1121.0
2018-Feb-13 20:31N 36°04' W 005°22'5 4.1
2018-Feb-13 19:14N 36°08' W 005°26'716.5
2018-Feb-13 18:49N 36°02' W 005°22'826.4
2018-Feb-13 18:30N 35°55' W 005°19'1 1.9
2018-Feb-13 18:00N 35°54' W 005°19'0 0.3
2018-Feb-13 17:30N 35°54' W 005°19'918.6
2018-Feb-13 17:00N 36°03' W 005°22'7 6.0
2018-Feb-13 15:53N 36°09' W 005°26'817.7
2018-Feb-13 15:28N 36°02' W 005°21'918.9
2018-Feb-13 15:00N 35°54' W 005°19'  
Track history (hours):
 
Tides and Currents Weather Stations Pressure Air Temp Water Temp Dewpoint Dewpoint Depression Visibility Wind Speed Wind Dir Waves Ship Positions

Milenium Dos

Last reported at 2018-Feb-23 14:31 UTC. Time now 2018-Feb-23 14:32 UTC.
Position N 35°54' W 005°19'.

Length 97 m; draft 2.7 m.

Type: Passenger vessel. MMSI: 224239000.

Date/timePositionNaut miles runAvg speedWind from/ knotsBaromVisibWave heightAir tempDewpointWater temp
2018-Feb-23 14:31N 35°54' W 005°19'1610.3
2018-Feb-23 13:01N 36°08' W 005°26'816.1
2018-Feb-23 12:31N 36°01' W 005°21'814.9
2018-Feb-23 12:00N 35°54' W 005°19'0 0.3
2018-Feb-23 11:30N 35°54' W 005°19'16 7.3
2018-Feb-23 09:22N 36°09' W 005°26'717.6
2018-Feb-23 08:57N 36°02' W 005°22'919.7
2018-Feb-23 08:31N 35°54' W 005°19'0 0.0
2018-Feb-23 08:00N 35°54' W 005°19'713.1
2018-Feb-23 07:31N 36°00' W 005°20'918.9
2018-Feb-23 07:00N 36°09' W 005°26'1 0.7
2018-Feb-23 05:48N 36°08' W 005°26'0 0.0
2018-Feb-23 05:17N 36°08' W 005°26'0 0.0
2018-Feb-23 04:53N 36°08' W 005°26'0 0.0
2018-Feb-23 04:30N 36°08' W 005°26'0 0.0
2018-Feb-23 02:58N 36°08' W 005°26'0 0.0
2018-Feb-23 02:09N 36°08' W 005°26'0 0.0
2018-Feb-23 02:00N 36°08' W 005°26'0 0.0
2018-Feb-23 01:15N 36°08' W 005°26'0 0.0
2018-Feb-23 01:00N 36°08' W 005°26'0 0.0
2018-Feb-23 00:25N 36°08' W 005°26'8 3.2
2018-Feb-22 21:57N 36°01' W 005°21'817.6
2018-Feb-22 21:30N 35°54' W 005°19'0 0.6
2018-Feb-22 21:01N 35°54' W 005°19'1223.8
2018-Feb-22 20:30N 36°05' W 005°23'4 3.2
2018-Feb-22 19:14N 36°09' W 005°26'715.9
2018-Feb-22 18:45N 36°02' W 005°22'624.4
2018-Feb-22 18:31N 35°56' W 005°20'2 4.9
2018-Feb-22 18:00N 35°54' W 005°19'0 0.2
2018-Feb-22 17:30N 35°54' W 005°19'1020.1
2018-Feb-22 17:00N 36°03' W 005°23'6 4.4
2018-Feb-22 15:44N 36°08' W 005°26'412.1
2018-Feb-22 15:27N 36°06' W 005°23'1125.1
2018-Feb-22 15:01N 35°55' W 005°19'1 2.9
2018-Feb-22 14:31N 35°54' W 005°19'1019.3
2018-Feb-22 14:01N 36°03' W 005°23'6 5.7
2018-Feb-22 12:57N 36°08' W 005°26'816.3
2018-Feb-22 12:28N 36°01' W 005°21'816.9
2018-Feb-22 12:00N 35°54' W 005°19'0 0.4
2018-Feb-22 11:30N 35°54' W 005°19'8 3.0
2018-Feb-22 08:55N 36°01' W 005°21'819.4
2018-Feb-22 08:31N 35°54' W 005°19'0 0.0
2018-Feb-22 08:00N 35°54' W 005°19'713.5
2018-Feb-22 07:31N 36°00' W 005°21'918.3
2018-Feb-22 07:00N 36°08' W 005°26'1 1.4
2018-Feb-22 06:29N 36°08' W 005°26'0 0.0
2018-Feb-22 05:59N 36°08' W 005°26'0 0.0
2018-Feb-22 05:21N 36°08' W 005°26'0 0.0
2018-Feb-22 04:53N 36°08' W 005°26'0 0.0
2018-Feb-22 03:55N 36°08' W 005°26'0 0.0
2018-Feb-22 03:25N 36°08' W 005°26'0 0.0
2018-Feb-22 02:58N 36°08' W 005°26'0 0.0
2018-Feb-22 02:29N 36°08' W 005°26'0 0.0
2018-Feb-22 02:00N 36°08' W 005°26'0 0.0
2018-Feb-22 01:30N 36°08' W 005°26'0 0.0
2018-Feb-22 01:00N 36°08' W 005°26'0 0.0
2018-Feb-22 00:30N 36°08' W 005°26'0 0.0
2018-Feb-21 23:59N 36°08' W 005°26'0 0.0
2018-Feb-21 23:30N 36°08' W 005°26'0 0.0
2018-Feb-21 23:00N 36°08' W 005°26'1 2.9
2018-Feb-21 22:30N 36°09' W 005°25'1223.1
2018-Feb-21 22:01N 35°58' W 005°20'5 9.2
2018-Feb-21 21:30N 35°54' W 005°19'0 0.3
2018-Feb-21 21:00N 35°54' W 005°19'1122.2
2018-Feb-21 20:31N 36°05' W 005°22'5 8.7
2018-Feb-21 19:59N 36°08' W 005°26'0 0.0
2018-Feb-21 19:30N 36°08' W 005°26'2 4.2
2018-Feb-21 19:00N 36°09' W 005°24'1122.8
2018-Feb-21 18:30N 35°58' W 005°20'5 9.3
2018-Feb-21 18:00N 35°54' W 005°19'0 0.1
2018-Feb-21 17:30N 35°54' W 005°19'918.8
2018-Feb-21 17:00N 36°03' W 005°22'6 5.1
2018-Feb-21 15:48N 36°08' W 005°26'715.4
2018-Feb-21 15:22N 36°02' W 005°22'924.4
2018-Feb-21 15:00N 35°54' W 005°19'1 1.1
2018-Feb-21 14:31N 35°54' W 005°19'1221.5
2018-Feb-21 13:58N 36°05' W 005°23'4 4.3
2018-Feb-21 12:57N 36°09' W 005°26'818.4
2018-Feb-21 12:31N 36°01' W 005°23'815.1
2018-Feb-21 12:00N 35°54' W 005°19'0 0.4
2018-Feb-21 11:31N 35°54' W 005°19'1122.4
2018-Feb-21 11:00N 36°05' W 005°23'4 2.6
2018-Feb-21 09:22N 36°08' W 005°26'817.5
2018-Feb-21 08:54N 36°01' W 005°20'819.7
2018-Feb-21 08:30N 35°54' W 005°19'0 0.0
2018-Feb-21 08:00N 35°54' W 005°19'510.7
2018-Feb-21 07:31N 35°59' W 005°20'1122.0
2018-Feb-21 07:00N 36°09' W 005°26'1 0.6
2018-Feb-21 05:15N 36°08' W 005°26'0 0.0
2018-Feb-21 04:50N 36°08' W 005°26'0 0.0
2018-Feb-21 04:25N 36°08' W 005°26'0 0.0
2018-Feb-21 03:50N 36°08' W 005°26'0 0.0
2018-Feb-21 03:28N 36°08' W 005°26'0 0.0
2018-Feb-21 02:59N 36°08' W 005°26'0 0.0
2018-Feb-21 02:31N 36°08' W 005°26'0 0.0
2018-Feb-21 02:00N 36°08' W 005°26'0 0.0
2018-Feb-21 01:28N 36°08' W 005°26'0 0.0
2018-Feb-21 00:58N 36°08' W 005°26'0 0.0
2018-Feb-21 00:30N 36°08' W 005°26'0 0.0
2018-Feb-20 23:59N 36°08' W 005°26'0 0.0
2018-Feb-20 23:20N 36°08' W 005°26'0 0.0
2018-Feb-20 22:58N 36°08' W 005°26'0 0.7
2018-Feb-20 22:30N 36°08' W 005°26'815.3
2018-Feb-20 22:00N 36°01' W 005°21'815.8
2018-Feb-20 21:30N 35°54' W 005°19'0 0.1
2018-Feb-20 21:01N 35°54' W 005°19'1019.2
2018-Feb-20 20:31N 36°03' W 005°22'611.8
2018-Feb-20 20:00N 36°08' W 005°26'0 0.0
2018-Feb-20 19:30N 36°08' W 005°26'2 4.8
2018-Feb-20 19:00N 36°08' W 005°23'1223.6
2018-Feb-20 18:31N 35°57' W 005°19'3 6.1
2018-Feb-20 18:00N 35°54' W 005°19'0 0.5
2018-Feb-20 17:31N 35°54' W 005°19'1622.9
2018-Feb-20 16:48N 36°09' W 005°26'1 1.2
2018-Feb-20 15:57N 36°08' W 005°26'714.9
2018-Feb-20 15:30N 36°03' W 005°21'918.4
2018-Feb-20 15:00N 35°54' W 005°19'0 0.0
2018-Feb-20 14:31N 35°54' W 005°19'1621.0
2018-Feb-20 13:45N 36°09' W 005°26'0 0.7
2018-Feb-20 13:06N 36°08' W 005°26'715.2
2018-Feb-20 12:38N 36°02' W 005°21'325.9
2018-Feb-20 12:31N 35°59' W 005°20'510.7
2018-Feb-20 12:00N 35°54' W 005°19'3 5.3
2018-Feb-20 11:31N 35°56' W 005°19'6 2.4
2018-Feb-20 08:59N 36°02' W 005°22'817.8
2018-Feb-20 08:30N 35°54' W 005°19'0 0.1
2018-Feb-20 08:00N 35°54' W 005°19'816.7
2018-Feb-20 07:31N 36°02' W 005°21'714.6
2018-Feb-20 07:01N 36°08' W 005°26'0 0.3
2018-Feb-20 06:17N 36°08' W 005°26'0 0.0
2018-Feb-19 22:59N 36°08' W 005°26'2 3.0
2018-Feb-19 22:26N 36°09' W 005°25'1226.9
2018-Feb-19 22:00N 35°58' W 005°20'4 8.3
2018-Feb-19 21:30N 35°54' W 005°19'0 0.2
2018-Feb-19 21:00N 35°54' W 005°19'1020.5
2018-Feb-19 20:31N 36°04' W 005°22'6 4.4
2018-Feb-19 19:15N 36°08' W 005°26'4 8.7
2018-Feb-19 18:51N 36°06' W 005°23'926.6
2018-Feb-19 18:31N 35°57' W 005°19'3 6.7
2018-Feb-19 18:00N 35°54' W 005°19'0 0.8
2018-Feb-19 17:31N 35°54' W 005°19'1325.9
2018-Feb-19 17:00N 36°06' W 005°24'3 2.6
2018-Feb-19 15:58N 36°08' W 005°26'4 9.6
2018-Feb-19 15:31N 36°05' W 005°22'1122.7
2018-Feb-19 15:00N 35°54' W 005°19'0 0.5
2018-Feb-19 14:30N 35°54' W 005°19'1020.8
2018-Feb-19 14:01N 36°04' W 005°22'5 4.9
2018-Feb-19 12:57N 36°08' W 005°26'714.7
2018-Feb-19 12:30N 36°02' W 005°22'917.8
2018-Feb-19 12:00N 35°54' W 005°19'0 0.4
2018-Feb-19 11:30N 35°54' W 005°19'1122.6
2018-Feb-19 11:00N 36°05' W 005°22'4 2.6
2018-Feb-19 09:23N 36°08' W 005°26'513.6
2018-Feb-19 09:01N 36°04' W 005°23'1020.8
2018-Feb-19 08:30N 35°54' W 005°19'  
2018-Feb-15 22:46N 36°08' W 005°26'2 5.7
2018-Feb-15 22:29N 36°09' W 005°25'1225.8
2018-Feb-15 22:00N 35°57' W 005°20'3 6.8
2018-Feb-15 21:31N 35°54' W 005°19'0 0.0
2018-Feb-15 21:01N 35°54' W 005°19'1019.7
2018-Feb-15 20:30N 36°03' W 005°22'6 4.6
2018-Feb-15 19:19N 36°08' W 005°26'2 5.7
2018-Feb-15 19:00N 36°09' W 005°24'1225.0
2018-Feb-15 18:30N 35°57' W 005°20'3 6.2
2018-Feb-15 18:00N 35°54' W 005°19'0 0.5
2018-Feb-15 17:31N 35°54' W 005°19'1224.7
2018-Feb-15 17:00N 36°06' W 005°23'2 1.3
2018-Feb-15 15:31N 36°04' W 005°22'026.0
2018-Feb-15 15:30N 36°04' W 005°21'1021.0
2018-Feb-15 15:01N 35°54' W 005°19'0 0.2
2018-Feb-15 14:31N 35°54' W 005°19'1223.9
2018-Feb-15 14:00N 36°05' W 005°22'4 4.0
2018-Feb-15 12:58N 36°09' W 005°26'818.4
2018-Feb-15 12:30N 36°01' W 005°21'815.6
2018-Feb-15 12:01N 35°54' W 005°19'1 1.2
2018-Feb-15 11:30N 35°54' W 005°19'15 7.5
2018-Feb-15 09:27N 36°08' W 005°26'614.5
2018-Feb-15 09:00N 36°02' W 005°22'918.0
2018-Feb-15 08:30N 35°54' W 005°19'0 0.0
2018-Feb-15 08:00N 35°54' W 005°19'713.7
2018-Feb-15 07:31N 36°00' W 005°21'917.2
2018-Feb-15 07:00N 36°08' W 005°26'0 0.0
2018-Feb-14 22:32N 36°08' W 005°26'0 7.3
2018-Feb-14 22:31N 36°08' W 005°26'815.7
2018-Feb-14 22:01N 36°01' W 005°21'815.2
2018-Feb-14 21:30N 35°54' W 005°19'0 0.2
2018-Feb-14 21:00N 35°54' W 005°19'1121.4
2018-Feb-14 20:31N 36°04' W 005°22'5 4.1
2018-Feb-14 19:21N 36°08' W 005°26'3 8.2
2018-Feb-14 19:01N 36°06' W 005°24'1325.7
2018-Feb-14 18:31N 35°54' W 005°19'1 1.0
2018-Feb-14 18:01N 35°54' W 005°19'0 0.5
2018-Feb-14 17:31N 35°54' W 005°19'1325.2
2018-Feb-14 16:58N 36°07' W 005°24'2 2.0
2018-Feb-14 15:48N 36°08' W 005°26'3 9.6
2018-Feb-14 15:30N 36°06' W 005°23'1325.5
2018-Feb-14 15:01N 35°54' W 005°19'1 1.5
2018-Feb-14 14:30N 35°54' W 005°19'816.3
2018-Feb-14 14:00N 36°01' W 005°22'7 7.4
2018-Feb-14 13:03N 36°08' W 005°26'0 9.1
2018-Feb-14 13:00N 36°08' W 005°26'918.2
2018-Feb-14 12:30N 36°00' W 005°21'713.2
2018-Feb-14 12:01N 35°54' W 005°19'0 0.6
2018-Feb-14 11:31N 35°54' W 005°19'1122.7
2018-Feb-14 11:00N 36°05' W 005°23'4 2.9
2018-Feb-14 09:31N 36°08' W 005°26'0 3.9
2018-Feb-14 09:27N 36°08' W 005°26'614.3
2018-Feb-14 09:01N 36°02' W 005°22'918.0
2018-Feb-14 08:30N 35°54' W 005°19'0 0.0
2018-Feb-14 08:00N 35°54' W 005°19'816.6
2018-Feb-14 07:30N 36°02' W 005°21'714.8
2018-Feb-14 07:00N 36°08' W 005°26'0 0.1
2018-Feb-14 06:00N 36°08' W 005°26'0 0.0
2018-Feb-13 23:02N 36°08' W 005°26'0 0.0
2018-Feb-13 23:00N 36°08' W 005°26'1 1.2
2018-Feb-13 22:30N 36°08' W 005°26'918.6
2018-Feb-13 22:01N 36°00' W 005°20'713.2
2018-Feb-13 21:31N 35°54' W 005°19'0 0.2
2018-Feb-13 21:00N 35°54' W 005°19'1121.0
2018-Feb-13 20:31N 36°04' W 005°22'5 4.1
2018-Feb-13 19:14N 36°08' W 005°26'716.5
2018-Feb-13 18:49N 36°02' W 005°22'826.4
2018-Feb-13 18:30N 35°55' W 005°19'1 1.9
2018-Feb-13 18:00N 35°54' W 005°19'0 0.3
2018-Feb-13 17:30N 35°54' W 005°19'918.6
2018-Feb-13 17:00N 36°03' W 005°22'7 6.0
2018-Feb-13 15:53N 36°09' W 005°26'817.7
2018-Feb-13 15:28N 36°02' W 005°21'918.9
2018-Feb-13 15:00N 35°54' W 005°19'  

Dump ship's entire track history